createdAt,value
2023-02-14T00:04:19.297Z,5.04
2023-02-14T00:09:21.132Z,5.11
2023-02-14T00:14:41.302Z,5.08
2023-02-14T00:19:42.919Z,5.16
2023-02-14T00:24:44.697Z,5.23
2023-02-14T00:29:46.477Z,5.27
2023-02-14T00:34:48.093Z,5.24
2023-02-14T00:39:50.128Z,5.28
2023-02-14T00:44:51.739Z,5.30
2023-02-14T00:49:54.952Z,5.28
2023-02-14T00:54:56.764Z,5.33
2023-02-14T00:59:59.387Z,5.34
2023-02-14T01:05:01.882Z,5.37
2023-02-14T01:10:03.900Z,5.30
2023-02-14T01:15:05.801Z,5.39
2023-02-14T01:20:08.156Z,5.37
2023-02-14T01:25:10.130Z,5.36
2023-02-14T01:30:12.623Z,5.41
2023-02-14T01:35:15.872Z,5.36
2023-02-14T01:40:17.547Z,5.37
2023-02-14T01:45:22.303Z,5.37
2023-02-14T01:50:28.909Z,5.39
2023-02-14T01:55:33.849Z,5.35
2023-02-14T02:00:56.088Z,5.28
2023-02-14T02:06:13.886Z,5.29
2023-02-14T02:11:15.544Z,5.37
2023-02-14T02:16:35.455Z,5.36
2023-02-14T02:22:21.482Z,5.38
2023-02-14T02:27:35.399Z,5.37
2023-02-14T02:32:58.594Z,5.29
2023-02-14T02:38:45.065Z,5.27
2023-02-14T02:43:53.799Z,5.30
2023-02-14T02:48:55.316Z,5.29
2023-02-14T02:54:09.775Z,5.24
2023-02-14T02:59:23.062Z,5.22
2023-02-14T03:04:53.224Z,5.25
2023-02-14T03:09:58.544Z,5.27
2023-02-14T03:15:36.256Z,5.32
2023-02-14T03:20:55.067Z,5.32
2023-02-14T03:26:08.930Z,5.31
2023-02-14T03:31:28.779Z,5.24
2023-02-14T03:36:56.573Z,5.23
2023-02-14T03:42:16.416Z,5.31
2023-02-14T03:47:23.265Z,5.25
2023-02-14T03:52:27.040Z,5.16
2023-02-14T03:57:47.741Z,5.18
2023-02-14T04:02:58.312Z,5.06
2023-02-14T04:07:59.928Z,5.06
2023-02-14T04:13:01.541Z,5.07
2023-02-14T04:18:21.837Z,5.08
2023-02-14T04:23:23.708Z,5.03
2023-02-14T04:28:25.319Z,4.93
2023-02-14T04:33:26.924Z,4.95
2023-02-14T04:38:28.590Z,4.91
2023-02-14T04:43:30.562Z,4.90
2023-02-14T04:48:32.365Z,4.84
2023-02-14T04:53:34.022Z,4.82
2023-02-14T04:58:36.815Z,4.76
2023-02-14T05:03:38.477Z,4.71
2023-02-14T05:08:40.117Z,4.62
2023-02-14T05:13:41.762Z,4.71
2023-02-14T05:18:43.570Z,4.61
2023-02-14T05:23:45.385Z,4.44
2023-02-14T05:28:47.152Z,4.35
2023-02-14T05:33:49.133Z,4.30
2023-02-14T05:38:50.749Z,4.28
2023-02-14T05:43:52.456Z,4.26
2023-02-14T05:48:54.253Z,4.18
2023-02-14T05:53:57.820Z,4.09
2023-02-14T05:58:59.477Z,3.97
2023-02-14T06:04:01.245Z,3.99
2023-02-14T06:09:03.001Z,4.02
2023-02-14T06:14:04.647Z,4.00
2023-02-14T06:19:06.277Z,3.90
2023-02-14T06:24:08.449Z,4.00
2023-02-14T06:29:10.192Z,3.95
2023-02-14T06:34:12.247Z,4.06
2023-02-14T06:39:13.909Z,4.09
2023-02-14T06:44:15.635Z,4.09
2023-02-14T06:49:18.369Z,4.14
2023-02-14T06:54:20.010Z,4.16
2023-02-14T06:59:22.133Z,4.14
2023-02-14T07:04:23.842Z,4.19
2023-02-14T07:09:25.508Z,4.30
2023-02-14T07:14:27.255Z,4.26
2023-02-14T07:19:28.946Z,4.40
2023-02-14T07:24:30.563Z,4.41
2023-02-14T07:29:32.159Z,4.53
2023-02-14T07:34:33.814Z,4.67
2023-02-14T07:39:35.696Z,4.77
2023-02-14T07:44:40.728Z,4.82
2023-02-14T07:49:42.680Z,5.00
2023-02-14T07:54:44.414Z,4.96
2023-02-14T07:59:46.243Z,5.04
2023-02-14T08:04:47.828Z,5.04
2023-02-14T08:09:49.622Z,5.12
2023-02-14T08:14:51.233Z,5.16
2023-02-14T08:19:52.989Z,5.36
2023-02-14T08:24:54.713Z,5.37
2023-02-14T08:29:56.570Z,5.38
2023-02-14T08:34:58.242Z,5.52
2023-02-14T08:39:59.904Z,5.64
2023-02-14T08:45:01.582Z,5.65
2023-02-14T08:50:06.104Z,5.77
2023-02-14T08:55:07.936Z,5.90
2023-02-14T09:00:11.698Z,6.05
2023-02-14T09:05:13.464Z,6.09
2023-02-14T09:10:15.517Z,6.20
2023-02-14T09:15:17.479Z,6.28
2023-02-14T09:20:19.471Z,6.40
2023-02-14T09:25:21.335Z,6.40
2023-02-14T09:30:23.228Z,6.46
2023-02-14T09:35:24.885Z,6.29
2023-02-14T09:40:26.627Z,6.55
2023-02-14T09:45:30.856Z,6.70
2023-02-14T09:50:42.280Z,6.69
2023-02-14T09:56:09.041Z,6.82
2023-02-14T10:01:19.315Z,6.73
2023-02-14T10:06:42.662Z,6.89
2023-02-14T10:11:46.351Z,6.92
2023-02-14T10:17:20.786Z,6.63
2023-02-14T10:22:31.022Z,6.70
2023-02-14T10:27:46.347Z,6.80
2023-02-14T10:33:02.329Z,6.76
2023-02-14T10:38:03.891Z,6.95
2023-02-14T10:43:16.291Z,6.81
2023-02-14T10:48:23.861Z,7.01
2023-02-14T10:53:55.963Z,6.79
2023-02-14T10:59:02.773Z,6.81
2023-02-14T11:04:08.576Z,6.78
2023-02-14T11:09:12.288Z,6.86
2023-02-14T11:14:22.101Z,6.92
2023-02-14T11:19:29.089Z,6.87
2023-02-14T11:24:30.853Z,6.84
2023-02-14T11:29:43.682Z,6.72
2023-02-14T11:34:52.807Z,6.74
2023-02-14T11:39:58.033Z,6.97
2023-02-14T11:44:59.783Z,7.14
2023-02-14T11:50:24.759Z,7.17
2023-02-14T11:55:33.715Z,7.32
2023-02-14T12:00:35.532Z,7.18
2023-02-14T12:05:46.955Z,7.41
2023-02-14T12:11:01.740Z,7.18
2023-02-14T12:16:03.936Z,7.08
2023-02-14T12:21:21.526Z,7.26
2023-02-14T12:26:54.472Z,7.48
2023-02-14T12:32:02.150Z,7.48
2023-02-14T12:37:28.107Z,7.40
2023-02-14T12:42:57.509Z,7.46
2023-02-14T12:48:22.895Z,7.50
2023-02-14T12:53:49.116Z,7.55
2023-02-14T12:59:01.657Z,7.73
2023-02-14T13:04:15.426Z,7.67
2023-02-14T13:09:27.507Z,7.70
2023-02-14T13:14:46.899Z,7.76
2023-02-14T13:20:03.766Z,7.73
2023-02-14T13:25:21.751Z,7.79
2023-02-14T13:30:32.305Z,7.66
2023-02-14T13:35:34.836Z,7.70
2023-02-14T13:40:37.667Z,7.71
2023-02-14T13:45:52.098Z,7.78
2023-02-14T13:50:53.761Z,7.64
2023-02-14T13:55:55.982Z,7.69
2023-02-14T14:00:57.797Z,7.51
2023-02-14T14:06:11.156Z,7.57
2023-02-14T14:11:21.896Z,7.74
2023-02-14T14:21:27.927Z,7.67
2023-02-14T14:27:03.986Z,7.69
2023-02-14T14:32:21.647Z,7.60
2023-02-14T14:37:26.739Z,7.74
2023-02-14T14:42:40.742Z,7.62
2023-02-14T14:47:45.333Z,7.41
2023-02-14T14:52:59.376Z,7.56
2023-02-14T14:58:04.656Z,7.52
2023-02-14T15:03:14.856Z,7.42
2023-02-14T15:08:35.659Z,7.41
2023-02-14T15:13:51.060Z,7.21
2023-02-14T15:18:57.649Z,7.00
2023-02-14T15:24:02.023Z,6.88
2023-02-14T15:29:05.925Z,6.83
2023-02-14T15:34:08.159Z,6.83
2023-02-14T15:39:16.518Z,6.64
2023-02-14T15:44:20.564Z,6.49
2023-02-14T15:49:26.157Z,6.50
2023-02-14T15:54:41.736Z,6.43
2023-02-14T15:59:43.758Z,6.34
2023-02-14T16:04:45.785Z,6.14
2023-02-14T16:09:48.299Z,6.15
2023-02-14T16:15:15.093Z,5.90
2023-02-14T16:20:22.744Z,5.91
2023-02-14T16:25:24.621Z,5.80
2023-02-14T16:30:26.614Z,5.64
2023-02-14T16:35:29.571Z,5.63
2023-02-14T16:40:31.325Z,5.64
2023-02-14T16:45:32.997Z,5.48
2023-02-14T16:50:36.792Z,5.46
2023-02-14T16:55:40.459Z,5.41
2023-02-14T17:00:42.285Z,5.28
2023-02-14T17:05:44.185Z,5.15
2023-02-14T17:10:48.662Z,5.13
2023-02-14T17:15:50.939Z,5.02
2023-02-14T17:20:52.716Z,5.05
2023-02-14T17:25:54.512Z,5.03
2023-02-14T17:30:57.805Z,5.02
2023-02-14T17:36:11.508Z,4.89
2023-02-14T17:41:22.276Z,4.73
2023-02-14T17:46:23.925Z,4.72
2023-02-14T17:51:25.560Z,4.77
2023-02-14T17:56:27.178Z,4.57
2023-02-14T18:01:31.439Z,4.61
2023-02-14T18:06:33.565Z,4.57
2023-02-14T18:11:35.429Z,4.33
2023-02-14T18:16:39.124Z,4.40
2023-02-14T18:21:40.816Z,4.42
2023-02-14T18:26:43.010Z,4.56
2023-02-14T18:31:45.168Z,4.52
2023-02-14T18:36:48.017Z,4.57
2023-02-14T18:41:49.669Z,4.60
2023-02-14T18:46:51.247Z,4.49
2023-02-14T18:51:53.535Z,4.50
2023-02-14T18:56:55.136Z,4.55
2023-02-14T19:01:57.111Z,4.59
2023-02-14T19:06:59.623Z,4.66
2023-02-14T19:12:01.313Z,4.55
2023-02-14T19:17:04.411Z,4.68
2023-02-14T19:22:06.129Z,4.57
2023-02-14T19:27:07.921Z,4.53
2023-02-14T19:32:10.338Z,4.49
2023-02-14T19:37:13.098Z,4.51
2023-02-14T19:42:15.012Z,4.54
2023-02-14T19:47:29.018Z,4.57
2023-02-14T19:52:38.777Z,4.51
2023-02-14T19:57:41.120Z,4.54
2023-02-14T20:02:47.977Z,4.44
2023-02-14T20:07:51.907Z,4.52
2023-02-14T20:12:53.648Z,4.44
2023-02-14T20:17:55.619Z,4.50
2023-02-14T20:22:57.408Z,4.56
2023-02-14T20:27:58.981Z,4.46
2023-02-14T20:33:00.699Z,4.40
2023-02-14T20:38:02.903Z,4.40
2023-02-14T20:43:04.594Z,4.42
2023-02-14T20:48:08.061Z,4.45
2023-02-14T20:53:09.686Z,4.43
2023-02-14T20:58:11.636Z,4.36
2023-02-14T21:03:13.259Z,4.40
2023-02-14T21:08:15.328Z,4.32
2023-02-14T21:13:17.147Z,4.33
2023-02-14T21:18:19.092Z,4.32
2023-02-14T21:23:20.692Z,4.36
2023-02-14T21:28:22.374Z,4.28
2023-02-14T21:33:25.346Z,4.21
2023-02-14T21:38:27.928Z,4.19
2023-02-14T21:43:29.547Z,4.09
2023-02-14T21:48:50.242Z,3.92
2023-02-14T21:53:51.932Z,3.92
2023-02-14T21:58:55.447Z,3.83
2023-02-14T22:03:58.588Z,3.78
2023-02-14T22:09:00.633Z,3.63
2023-02-14T22:14:02.660Z,3.60
2023-02-14T22:19:05.423Z,3.56
2023-02-14T22:24:07.326Z,3.57
2023-02-14T22:29:12.238Z,3.56
2023-02-14T22:34:17.656Z,3.55
2023-02-14T22:39:19.452Z,3.40
2023-02-14T22:44:21.054Z,3.31
2023-02-14T22:49:22.646Z,3.32
2023-02-14T22:54:24.254Z,3.30
2023-02-14T22:59:28.279Z,3.15
2023-02-14T23:04:30.100Z,3.11
2023-02-14T23:09:31.882Z,3.00
2023-02-14T23:14:52.119Z,2.94
2023-02-14T23:20:12.378Z,2.95
2023-02-14T23:25:13.989Z,2.91
2023-02-14T23:30:18.222Z,2.78
2023-02-14T23:35:19.867Z,2.77
2023-02-14T23:40:21.695Z,2.67
2023-02-14T23:45:35.676Z,2.59
2023-02-14T23:50:37.402Z,2.57
2023-02-14T23:55:39.450Z,2.44
